sensor_id;sensor_type;location;lat;lon;timestamp;temperature;humidity
792;DHT22;379;49.022;12.148;2022-10-26T00:01:30;7.40;99.90
792;DHT22;379;49.022;12.148;2022-10-26T00:03:57;7.40;99.90
792;DHT22;379;49.022;12.148;2022-10-26T00:06:25;7.40;99.90
792;DHT22;379;49.022;12.148;2022-10-26T00:08:54;7.40;99.90
792;DHT22;379;49.022;12.148;2022-10-26T00:11:23;7.40;99.90
792;DHT22;379;49.022;12.148;2022-10-26T00:13:50;7.40;99.90
792;DHT22;379;49.022;12.148;2022-10-26T00:16:19;7.40;99.90
792;DHT22;379;49.022;12.148;2022-10-26T00:18:46;7.40;99.90
792;DHT22;379;49.022;12.148;2022-10-26T00:21:13;7.40;99.90
792;DHT22;379;49.022;12.148;2022-10-26T00:23:40;7.40;99.90
792;DHT22;379;49.022;12.148;2022-10-26T00:26:08;7.30;99.90
792;DHT22;379;49.022;12.148;2022-10-26T00:28:36;7.30;99.90
792;DHT22;379;49.022;12.148;2022-10-26T00:31:04;7.20;99.90
792;DHT22;379;49.022;12.148;2022-10-26T00:33:31;7.20;99.90
792;DHT22;379;49.022;12.148;2022-10-26T00:35:58;7.20;99.90
792;DHT22;379;49.022;12.148;2022-10-26T00:38:25;7.10;99.90
792;DHT22;379;49.022;12.148;2022-10-26T00:40:52;7.10;99.90
792;DHT22;379;49.022;12.148;2022-10-26T00:43:33;7.10;99.90
792;DHT22;379;49.022;12.148;2022-10-26T00:46:05;7.20;99.90
792;DHT22;379;49.022;12.148;2022-10-26T00:48:34;7.30;99.90
792;DHT22;379;49.022;12.148;2022-10-26T00:51:06;7.30;99.90
792;DHT22;379;49.022;12.148;2022-10-26T00:53:34;7.30;99.90
792;DHT22;379;49.022;12.148;2022-10-26T00:56:01;7.30;99.90
792;DHT22;379;49.022;12.148;2022-10-26T00:58:29;7.30;99.90
792;DHT22;379;49.022;12.148;2022-10-26T01:00:55;7.40;99.90
792;DHT22;379;49.022;12.148;2022-10-26T01:03:24;7.40;99.90
792;DHT22;379;49.022;12.148;2022-10-26T01:05:55;7.50;99.90
792;DHT22;379;49.022;12.148;2022-10-26T01:08:22;7.50;99.90
792;DHT22;379;49.022;12.148;2022-10-26T01:10:49;7.60;99.90
792;DHT22;379;49.022;12.148;2022-10-26T01:13:17;7.60;99.90
792;DHT22;379;49.022;12.148;2022-10-26T01:15:50;7.70;99.90
792;DHT22;379;49.022;12.148;2022-10-26T01:18:26;7.70;99.90
792;DHT22;379;49.022;12.148;2022-10-26T01:21:13;7.90;99.90
792;DHT22;379;49.022;12.148;2022-10-26T01:24:02;8.20;99.90
792;DHT22;379;49.022;12.148;2022-10-26T01:26:50;8.40;99.90
792;DHT22;379;49.022;12.148;2022-10-26T01:29:48;8.60;99.90
792;DHT22;379;49.022;12.148;2022-10-26T01:32:21;8.80;99.90
792;DHT22;379;49.022;12.148;2022-10-26T01:34:53;8.90;99.90
792;DHT22;379;49.022;12.148;2022-10-26T01:37:25;8.90;99.90
792;DHT22;379;49.022;12.148;2022-10-26T01:39:59;8.90;99.90
792;DHT22;379;49.022;12.148;2022-10-26T01:42:29;8.90;99.90
792;DHT22;379;49.022;12.148;2022-10-26T01:45:00;8.90;99.90
792;DHT22;379;49.022;12.148;2022-10-26T01:47:31;8.90;99.90
792;DHT22;379;49.022;12.148;2022-10-26T01:50:00;8.90;99.90
792;DHT22;379;49.022;12.148;2022-10-26T01:52:28;8.90;99.90
792;DHT22;379;49.022;12.148;2022-10-26T01:54:59;8.90;99.90
792;DHT22;379;49.022;12.148;2022-10-26T01:57:26;8.90;99.90
792;DHT22;379;49.022;12.148;2022-10-26T02:00:01;8.90;99.90
792;DHT22;379;49.022;12.148;2022-10-26T02:02:53;9.00;99.90
792;DHT22;379;49.022;12.148;2022-10-26T02:05:39;9.10;99.90
792;DHT22;379;49.022;12.148;2022-10-26T02:08:32;9.20;99.90
792;DHT22;379;49.022;12.148;2022-10-26T02:11:12;9.20;99.90
792;DHT22;379;49.022;12.148;2022-10-26T02:13:46;9.20;99.90
792;DHT22;379;49.022;12.148;2022-10-26T02:16:20;9.20;99.90
792;DHT22;379;49.022;12.148;2022-10-26T02:18:54;9.20;99.90
792;DHT22;379;49.022;12.148;2022-10-26T02:21:24;9.30;99.90
792;DHT22;379;49.022;12.148;2022-10-26T02:23:54;9.30;99.90
792;DHT22;379;49.022;12.148;2022-10-26T02:26:25;9.40;99.90
792;DHT22;379;49.022;12.148;2022-10-26T02:28:55;9.40;99.90
792;DHT22;379;49.022;12.148;2022-10-26T02:31:23;9.50;99.90
792;DHT22;379;49.022;12.148;2022-10-26T02:33:54;9.50;99.90
792;DHT22;379;49.022;12.148;2022-10-26T02:36:27;9.50;99.90
792;DHT22;379;49.022;12.148;2022-10-26T02:38:55;9.50;99.90
792;DHT22;379;49.022;12.148;2022-10-26T02:41:24;9.50;99.90
792;DHT22;379;49.022;12.148;2022-10-26T02:43:56;9.50;99.90
792;DHT22;379;49.022;12.148;2022-10-26T02:46:26;9.50;99.90
792;DHT22;379;49.022;12.148;2022-10-26T02:48:55;9.50;99.90
792;DHT22;379;49.022;12.148;2022-10-26T02:51:28;9.50;99.90
792;DHT22;379;49.022;12.148;2022-10-26T02:54:00;9.50;99.90
792;DHT22;379;49.022;12.148;2022-10-26T02:56:35;9.50;99.90
792;DHT22;379;49.022;12.148;2022-10-26T02:59:05;9.50;99.90
792;DHT22;379;49.022;12.148;2022-10-26T03:01:33;9.50;99.90
792;DHT22;379;49.022;12.148;2022-10-26T03:04:02;9.50;99.90
792;DHT22;379;49.022;12.148;2022-10-26T03:06:29;9.60;99.90
792;DHT22;379;49.022;12.148;2022-10-26T03:08:56;9.60;99.90
792;DHT22;379;49.022;12.148;2022-10-26T03:11:22;9.60;99.90
792;DHT22;379;49.022;12.148;2022-10-26T03:13:49;9.60;99.90
792;DHT22;379;49.022;12.148;2022-10-26T03:16:16;9.70;99.90
792;DHT22;379;49.022;12.148;2022-10-26T03:18:42;9.70;99.90
792;DHT22;379;49.022;12.148;2022-10-26T03:21:10;9.70;99.90
792;DHT22;379;49.022;12.148;2022-10-26T03:23:37;9.70;99.90
792;DHT22;379;49.022;12.148;2022-10-26T03:26:04;9.80;99.90
792;DHT22;379;49.022;12.148;2022-10-26T03:28:31;9.80;99.90
792;DHT22;379;49.022;12.148;2022-10-26T03:30:57;9.80;99.90
792;DHT22;379;49.022;12.148;2022-10-26T03:33:24;9.80;99.90
792;DHT22;379;49.022;12.148;2022-10-26T03:35:54;9.80;99.90
792;DHT22;379;49.022;12.148;2022-10-26T03:38:22;9.90;99.90
792;DHT22;379;49.022;12.148;2022-10-26T03:40:49;9.90;99.90
792;DHT22;379;49.022;12.148;2022-10-26T03:43:16;10.00;99.90
792;DHT22;379;49.022;12.148;2022-10-26T03:45:43;10.00;99.90
792;DHT22;379;49.022;12.148;2022-10-26T03:48:09;10.00;99.90
792;DHT22;379;49.022;12.148;2022-10-26T03:50:36;10.00;99.90
792;DHT22;379;49.022;12.148;2022-10-26T03:53:03;10.00;99.90
792;DHT22;379;49.022;12.148;2022-10-26T03:55:31;10.10;99.90
792;DHT22;379;49.022;12.148;2022-10-26T03:57:58;10.10;99.90
792;DHT22;379;49.022;12.148;2022-10-26T04:00:24;10.10;99.90
792;DHT22;379;49.022;12.148;2022-10-26T04:02:56;10.10;99.90
792;DHT22;379;49.022;12.148;2022-10-26T04:05:23;10.20;99.90
792;DHT22;379;49.022;12.148;2022-10-26T04:07:53;10.20;99.90
792;DHT22;379;49.022;12.148;2022-10-26T04:10:20;10.20;99.90
792;DHT22;379;49.022;12.148;2022-10-26T04:12:48;10.30;99.90
792;DHT22;379;49.022;12.148;2022-10-26T04:15:16;10.40;99.90
792;DHT22;379;49.022;12.148;2022-10-26T04:17:42;10.40;99.90
792;DHT22;379;49.022;12.148;2022-10-26T04:20:10;10.40;99.90
792;DHT22;379;49.022;12.148;2022-10-26T04:22:37;10.50;99.90
792;DHT22;379;49.022;12.148;2022-10-26T04:25:05;10.50;99.90
792;DHT22;379;49.022;12.148;2022-10-26T04:27:32;10.40;99.90
792;DHT22;379;49.022;12.148;2022-10-26T04:30:01;10.40;99.90
792;DHT22;379;49.022;12.148;2022-10-26T04:32:27;10.50;99.90
792;DHT22;379;49.022;12.148;2022-10-26T04:34:54;10.50;99.90
792;DHT22;379;49.022;12.148;2022-10-26T04:37:21;10.50;99.90
792;DHT22;379;49.022;12.148;2022-10-26T04:39:47;10.40;99.90
792;DHT22;379;49.022;12.148;2022-10-26T04:42:14;10.40;99.90
792;DHT22;379;49.022;12.148;2022-10-26T04:44:41;10.40;99.90
792;DHT22;379;49.022;12.148;2022-10-26T04:47:09;10.40;99.90
792;DHT22;379;49.022;12.148;2022-10-26T04:49:35;10.40;99.90
792;DHT22;379;49.022;12.148;2022-10-26T04:52:04;10.40;99.90
792;DHT22;379;49.022;12.148;2022-10-26T04:54:30;10.30;99.90
792;DHT22;379;49.022;12.148;2022-10-26T04:56:57;10.40;99.90
792;DHT22;379;49.022;12.148;2022-10-26T04:59:24;10.40;99.90
792;DHT22;379;49.022;12.148;2022-10-26T05:01:51;10.40;99.90
792;DHT22;379;49.022;12.148;2022-10-26T05:04:19;10.40;99.90
792;DHT22;379;49.022;12.148;2022-10-26T05:06:45;10.40;99.90
792;DHT22;379;49.022;12.148;2022-10-26T05:09:12;10.40;99.90
792;DHT22;379;49.022;12.148;2022-10-26T05:11:39;10.40;99.90
792;DHT22;379;49.022;12.148;2022-10-26T05:14:05;10.30;99.90
792;DHT22;379;49.022;12.148;2022-10-26T05:16:34;10.40;99.90
792;DHT22;379;49.022;12.148;2022-10-26T05:19:00;10.40;99.90
792;DHT22;379;49.022;12.148;2022-10-26T05:21:28;10.40;99.90
792;DHT22;379;49.022;12.148;2022-10-26T05:23:55;10.40;99.90
792;DHT22;379;49.022;12.148;2022-10-26T05:26:22;10.50;99.90
792;DHT22;379;49.022;12.148;2022-10-26T05:28:50;10.50;99.90
792;DHT22;379;49.022;12.148;2022-10-26T05:31:17;10.50;99.90
792;DHT22;379;49.022;12.148;2022-10-26T05:33:44;10.50;99.90
792;DHT22;379;49.022;12.148;2022-10-26T05:36:13;10.50;99.90
792;DHT22;379;49.022;12.148;2022-10-26T05:38:41;10.60;99.90
792;DHT22;379;49.022;12.148;2022-10-26T05:41:08;10.60;99.90
792;DHT22;379;49.022;12.148;2022-10-26T05:43:35;10.60;99.90
792;DHT22;379;49.022;12.148;2022-10-26T05:46:02;10.60;99.90
792;DHT22;379;49.022;12.148;2022-10-26T05:48:29;10.60;99.90
792;DHT22;379;49.022;12.148;2022-10-26T05:50:58;10.70;99.90
792;DHT22;379;49.022;12.148;2022-10-26T05:53:25;10.70;99.90
792;DHT22;379;49.022;12.148;2022-10-26T05:55:54;10.70;99.90
792;DHT22;379;49.022;12.148;2022-10-26T05:58:21;10.70;99.90
792;DHT22;379;49.022;12.148;2022-10-26T06:01:00;10.70;99.90
792;DHT22;379;49.022;12.148;2022-10-26T06:03:40;10.70;99.90
792;DHT22;379;49.022;12.148;2022-10-26T06:06:09;10.70;99.90
792;DHT22;379;49.022;12.148;2022-10-26T06:08:37;10.70;99.90
792;DHT22;379;49.022;12.148;2022-10-26T06:11:06;10.70;99.90
792;DHT22;379;49.022;12.148;2022-10-26T06:13:33;10.70;99.90
792;DHT22;379;49.022;12.148;2022-10-26T06:16:09;10.70;99.90
792;DHT22;379;49.022;12.148;2022-10-26T06:18:44;10.70;99.90
792;DHT22;379;49.022;12.148;2022-10-26T06:21:22;10.70;99.90
792;DHT22;379;49.022;12.148;2022-10-26T06:23:54;10.70;99.90
792;DHT22;379;49.022;12.148;2022-10-26T06:26:33;10.70;99.90
792;DHT22;379;49.022;12.148;2022-10-26T06:29:15;10.70;99.90
792;DHT22;379;49.022;12.148;2022-10-26T06:31:45;10.70;99.90
792;DHT22;379;49.022;12.148;2022-10-26T06:34:17;10.80;99.90
792;DHT22;379;49.022;12.148;2022-10-26T06:36:47;10.80;99.90
792;DHT22;379;49.022;12.148;2022-10-26T06:39:15;10.80;99.90
792;DHT22;379;49.022;12.148;2022-10-26T06:41:45;10.90;99.90
792;DHT22;379;49.022;12.148;2022-10-26T06:44:18;10.90;99.90
792;DHT22;379;49.022;12.148;2022-10-26T06:46:48;11.00;99.90
792;DHT22;379;49.022;12.148;2022-10-26T06:49:20;11.00;99.90
792;DHT22;379;49.022;12.148;2022-10-26T06:51:51;11.10;99.90
792;DHT22;379;49.022;12.148;2022-10-26T06:54:25;11.20;99.90
792;DHT22;379;49.022;12.148;2022-10-26T06:56:56;11.20;99.90
792;DHT22;379;49.022;12.148;2022-10-26T06:59:32;11.30;99.90
792;DHT22;379;49.022;12.148;2022-10-26T07:02:01;11.30;99.90
792;DHT22;379;49.022;12.148;2022-10-26T07:04:27;11.40;99.90
792;DHT22;379;49.022;12.148;2022-10-26T07:06:54;11.40;99.90
792;DHT22;379;49.022;12.148;2022-10-26T07:09:28;11.40;99.90
792;DHT22;379;49.022;12.148;2022-10-26T07:11:56;11.40;99.90
792;DHT22;379;49.022;12.148;2022-10-26T07:14:23;11.50;99.90
792;DHT22;379;49.022;12.148;2022-10-26T07:16:50;11.50;99.90
792;DHT22;379;49.022;12.148;2022-10-26T07:19:17;11.50;99.90
792;DHT22;379;49.022;12.148;2022-10-26T07:21:44;11.50;99.90
792;DHT22;379;49.022;12.148;2022-10-26T07:24:11;11.50;99.90
792;DHT22;379;49.022;12.148;2022-10-26T07:26:44;11.50;99.90
792;DHT22;379;49.022;12.148;2022-10-26T07:29:12;11.40;99.90
792;DHT22;379;49.022;12.148;2022-10-26T07:31:40;11.40;99.90
792;DHT22;379;49.022;12.148;2022-10-26T07:34:08;11.40;99.90
792;DHT22;379;49.022;12.148;2022-10-26T07:36:34;11.40;99.90
792;DHT22;379;49.022;12.148;2022-10-26T07:39:02;11.40;99.90
792;DHT22;379;49.022;12.148;2022-10-26T07:41:29;11.40;99.90
792;DHT22;379;49.022;12.148;2022-10-26T07:43:56;11.40;99.90
792;DHT22;379;49.022;12.148;2022-10-26T07:46:24;11.50;99.90
792;DHT22;379;49.022;12.148;2022-10-26T07:48:51;11.50;99.90
792;DHT22;379;49.022;12.148;2022-10-26T07:51:18;11.50;99.90
792;DHT22;379;49.022;12.148;2022-10-26T07:53:45;11.50;99.90
792;DHT22;379;49.022;12.148;2022-10-26T07:56:12;11.60;99.90
792;DHT22;379;49.022;12.148;2022-10-26T07:58:39;11.80;99.90
792;DHT22;379;49.022;12.148;2022-10-26T08:01:07;12.00;99.90
792;DHT22;379;49.022;12.148;2022-10-26T08:03:35;12.20;99.90
792;DHT22;379;49.022;12.148;2022-10-26T08:06:02;12.50;99.90
792;DHT22;379;49.022;12.148;2022-10-26T08:08:29;12.60;99.90
792;DHT22;379;49.022;12.148;2022-10-26T08:10:56;12.70;99.90
792;DHT22;379;49.022;12.148;2022-10-26T08:13:23;12.80;99.90
792;DHT22;379;49.022;12.148;2022-10-26T08:15:55;12.80;99.90
792;DHT22;379;49.022;12.148;2022-10-26T08:18:22;12.80;99.90
792;DHT22;379;49.022;12.148;2022-10-26T08:20:50;12.80;99.90
792;DHT22;379;49.022;12.148;2022-10-26T08:23:17;12.80;99.90
792;DHT22;379;49.022;12.148;2022-10-26T08:25:44;12.90;99.90
792;DHT22;379;49.022;12.148;2022-10-26T08:28:11;13.10;99.90
792;DHT22;379;49.022;12.148;2022-10-26T08:30:37;13.20;99.90
792;DHT22;379;49.022;12.148;2022-10-26T08:33:06;13.30;99.90
792;DHT22;379;49.022;12.148;2022-10-26T08:35:33;13.50;99.90
792;DHT22;379;49.022;12.148;2022-10-26T08:38:01;13.60;99.90
792;DHT22;379;49.022;12.148;2022-10-26T08:40:30;13.60;99.90
792;DHT22;379;49.022;12.148;2022-10-26T08:43:01;13.70;99.90
792;DHT22;379;49.022;12.148;2022-10-26T08:45:32;13.70;99.90
792;DHT22;379;49.022;12.148;2022-10-26T08:48:05;13.70;99.90
792;DHT22;379;49.022;12.148;2022-10-26T08:50:35;13.70;99.90
792;DHT22;379;49.022;12.148;2022-10-26T08:53:07;13.80;99.90
792;DHT22;379;49.022;12.148;2022-10-26T08:55:42;13.70;99.90
792;DHT22;379;49.022;12.148;2022-10-26T08:58:14;13.70;99.90
792;DHT22;379;49.022;12.148;2022-10-26T09:00:41;13.80;99.90
792;DHT22;379;49.022;12.148;2022-10-26T09:03:12;13.80;99.90
792;DHT22;379;49.022;12.148;2022-10-26T09:05:48;13.90;99.90
792;DHT22;379;49.022;12.148;2022-10-26T09:08:25;13.90;99.90
792;DHT22;379;49.022;12.148;2022-10-26T09:11:01;13.90;99.90
792;DHT22;379;49.022;12.148;2022-10-26T09:13:37;14.00;99.90
792;DHT22;379;49.022;12.148;2022-10-26T09:16:14;14.10;99.90
792;DHT22;379;49.022;12.148;2022-10-26T09:18:50;14.20;99.90
792;DHT22;379;49.022;12.148;2022-10-26T09:21:30;14.30;99.90
792;DHT22;379;49.022;12.148;2022-10-26T09:24:05;14.30;99.90
792;DHT22;379;49.022;12.148;2022-10-26T09:26:36;14.40;99.90
792;DHT22;379;49.022;12.148;2022-10-26T09:29:09;14.40;99.90
792;DHT22;379;49.022;12.148;2022-10-26T09:31:40;14.30;99.90
792;DHT22;379;49.022;12.148;2022-10-26T09:34:15;14.30;99.90
792;DHT22;379;49.022;12.148;2022-10-26T09:36:42;14.40;99.90
792;DHT22;379;49.022;12.148;2022-10-26T09:39:16;14.50;99.90
792;DHT22;379;49.022;12.148;2022-10-26T09:41:47;14.60;99.90
792;DHT22;379;49.022;12.148;2022-10-26T09:44:21;14.50;99.90
792;DHT22;379;49.022;12.148;2022-10-26T09:46:56;14.40;99.90
792;DHT22;379;49.022;12.148;2022-10-26T09:49:28;14.40;99.90
792;DHT22;379;49.022;12.148;2022-10-26T09:51:58;14.30;99.90
792;DHT22;379;49.022;12.148;2022-10-26T09:54:26;14.30;99.90
792;DHT22;379;49.022;12.148;2022-10-26T09:56:55;14.30;99.90
792;DHT22;379;49.022;12.148;2022-10-26T09:59:25;14.20;99.90
792;DHT22;379;49.022;12.148;2022-10-26T10:01:52;14.20;99.90
792;DHT22;379;49.022;12.148;2022-10-26T10:04:19;14.30;99.90
792;DHT22;379;49.022;12.148;2022-10-26T10:06:48;14.30;99.90
792;DHT22;379;49.022;12.148;2022-10-26T10:09:16;14.40;99.90
792;DHT22;379;49.022;12.148;2022-10-26T10:11:47;14.50;99.90
792;DHT22;379;49.022;12.148;2022-10-26T10:14:20;14.70;99.90
792;DHT22;379;49.022;12.148;2022-10-26T10:16:52;14.90;99.90
792;DHT22;379;49.022;12.148;2022-10-26T10:19:22;15.10;99.90
792;DHT22;379;49.022;12.148;2022-10-26T10:21:53;15.40;99.90
792;DHT22;379;49.022;12.148;2022-10-26T10:24:26;15.70;99.90
792;DHT22;379;49.022;12.148;2022-10-26T10:27:00;15.80;99.90
792;DHT22;379;49.022;12.148;2022-10-26T10:29:28;15.80;99.90
792;DHT22;379;49.022;12.148;2022-10-26T10:31:55;15.80;99.90
792;DHT22;379;49.022;12.148;2022-10-26T10:34:22;15.80;99.90
792;DHT22;379;49.022;12.148;2022-10-26T10:36:50;15.80;99.90
792;DHT22;379;49.022;12.148;2022-10-26T10:39:36;15.70;99.90
792;DHT22;379;49.022;12.148;2022-10-26T10:42:12;15.70;99.90
792;DHT22;379;49.022;12.148;2022-10-26T10:44:41;15.60;99.90
792;DHT22;379;49.022;12.148;2022-10-26T10:47:17;15.60;99.90
792;DHT22;379;49.022;12.148;2022-10-26T10:49:50;15.60;99.90
792;DHT22;379;49.022;12.148;2022-10-26T10:52:23;15.60;99.90
792;DHT22;379;49.022;12.148;2022-10-26T10:54:55;15.60;99.90
792;DHT22;379;49.022;12.148;2022-10-26T10:57:31;15.70;99.90
792;DHT22;379;49.022;12.148;2022-10-26T11:00:03;15.70;99.90
792;DHT22;379;49.022;12.148;2022-10-26T11:02:56;15.90;99.90
792;DHT22;379;49.022;12.148;2022-10-26T11:05:36;16.00;99.90
792;DHT22;379;49.022;12.148;2022-10-26T11:08:08;16.00;99.90
792;DHT22;379;49.022;12.148;2022-10-26T11:10:39;16.00;99.90
792;DHT22;379;49.022;12.148;2022-10-26T11:13:14;16.10;99.90
792;DHT22;379;49.022;12.148;2022-10-26T11:15:43;16.20;99.90
792;DHT22;379;49.022;12.148;2022-10-26T11:18:14;16.40;99.90
792;DHT22;379;49.022;12.148;2022-10-26T11:20:47;16.60;99.90
792;DHT22;379;49.022;12.148;2022-10-26T11:23:19;16.70;99.90
792;DHT22;379;49.022;12.148;2022-10-26T11:25:50;16.70;99.90
792;DHT22;379;49.022;12.148;2022-10-26T11:28:32;16.60;99.90
792;DHT22;379;49.022;12.148;2022-10-26T11:31:04;16.70;99.90
792;DHT22;379;49.022;12.148;2022-10-26T11:33:33;16.70;99.90
792;DHT22;379;49.022;12.148;2022-10-26T11:36:06;16.80;99.90
792;DHT22;379;49.022;12.148;2022-10-26T11:38:38;16.60;99.90
792;DHT22;379;49.022;12.148;2022-10-26T11:41:12;16.50;99.90
792;DHT22;379;49.022;12.148;2022-10-26T11:43:45;16.50;99.90
792;DHT22;379;49.022;12.148;2022-10-26T11:46:16;16.50;99.90
792;DHT22;379;49.022;12.148;2022-10-26T11:48:48;16.50;99.90
792;DHT22;379;49.022;12.148;2022-10-26T11:51:21;16.50;99.90
792;DHT22;379;49.022;12.148;2022-10-26T11:53:50;16.40;99.90
792;DHT22;379;49.022;12.148;2022-10-26T11:56:23;16.50;99.90
792;DHT22;379;49.022;12.148;2022-10-26T11:58:55;16.50;99.90
792;DHT22;379;49.022;12.148;2022-10-26T12:01:24;16.50;99.90
792;DHT22;379;49.022;12.148;2022-10-26T12:03:53;16.50;99.90
792;DHT22;379;49.022;12.148;2022-10-26T12:06:24;16.50;99.90
792;DHT22;379;49.022;12.148;2022-10-26T12:08:56;16.40;99.90
792;DHT22;379;49.022;12.148;2022-10-26T12:11:34;16.30;99.90
792;DHT22;379;49.022;12.148;2022-10-26T12:14:10;16.20;99.90
792;DHT22;379;49.022;12.148;2022-10-26T12:16:47;16.10;99.90
792;DHT22;379;49.022;12.148;2022-10-26T12:19:21;16.10;99.90
792;DHT22;379;49.022;12.148;2022-10-26T12:21:51;16.10;99.90
792;DHT22;379;49.022;12.148;2022-10-26T12:24:29;16.10;99.90
792;DHT22;379;49.022;12.148;2022-10-26T12:27:00;16.00;99.90
792;DHT22;379;49.022;12.148;2022-10-26T12:29:37;16.00;99.90
792;DHT22;379;49.022;12.148;2022-10-26T12:35:34;16.20;99.90
792;DHT22;379;49.022;12.148;2022-10-26T12:40:44;16.30;99.90
792;DHT22;379;49.022;12.148;2022-10-26T12:43:32;16.30;99.90
792;DHT22;379;49.022;12.148;2022-10-26T12:52:48;16.50;99.90
792;DHT22;379;49.022;12.148;2022-10-26T12:55:47;16.50;99.90
792;DHT22;379;49.022;12.148;2022-10-26T12:58:33;16.60;99.90
792;DHT22;379;49.022;12.148;2022-10-26T13:01:45;16.70;99.90
792;DHT22;379;49.022;12.148;2022-10-26T13:07:20;16.70;99.90
792;DHT22;379;49.022;12.148;2022-10-26T13:09:59;16.70;99.90
792;DHT22;379;49.022;12.148;2022-10-26T13:12:35;16.70;99.90
792;DHT22;379;49.022;12.148;2022-10-26T13:15:04;16.70;99.90
792;DHT22;379;49.022;12.148;2022-10-26T13:17:33;16.70;99.90
792;DHT22;379;49.022;12.148;2022-10-26T13:20:01;16.70;99.90
792;DHT22;379;49.022;12.148;2022-10-26T13:22:29;16.60;99.90
792;DHT22;379;49.022;12.148;2022-10-26T13:24:59;16.50;99.90
792;DHT22;379;49.022;12.148;2022-10-26T13:27:42;16.50;99.90
792;DHT22;379;49.022;12.148;2022-10-26T13:33:19;16.30;99.90
792;DHT22;379;49.022;12.148;2022-10-26T13:35:48;16.20;99.90
792;DHT22;379;49.022;12.148;2022-10-26T13:38:20;16.10;99.90
792;DHT22;379;49.022;12.148;2022-10-26T13:40:59;16.00;99.90
792;DHT22;379;49.022;12.148;2022-10-26T13:43:28;16.00;99.90
792;DHT22;379;49.022;12.148;2022-10-26T13:45:55;15.90;99.90
792;DHT22;379;49.022;12.148;2022-10-26T13:48:30;15.80;99.90
792;DHT22;379;49.022;12.148;2022-10-26T13:51:01;15.70;99.90
792;DHT22;379;49.022;12.148;2022-10-26T13:53:36;15.60;99.90
792;DHT22;379;49.022;12.148;2022-10-26T13:56:13;15.50;99.90
792;DHT22;379;49.022;12.148;2022-10-26T13:58:44;15.50;99.90
792;DHT22;379;49.022;12.148;2022-10-26T14:01:14;15.50;99.90
792;DHT22;379;49.022;12.148;2022-10-26T14:03:41;15.50;99.90
792;DHT22;379;49.022;12.148;2022-10-26T14:06:16;15.50;99.90
792;DHT22;379;49.022;12.148;2022-10-26T14:08:44;15.50;99.90
792;DHT22;379;49.022;12.148;2022-10-26T14:11:18;15.50;99.90
792;DHT22;379;49.022;12.148;2022-10-26T14:13:48;15.50;99.90
792;DHT22;379;49.022;12.148;2022-10-26T14:16:16;15.50;99.90
792;DHT22;379;49.022;12.148;2022-10-26T14:18:45;15.40;99.90
792;DHT22;379;49.022;12.148;2022-10-26T14:21:14;15.40;99.90
792;DHT22;379;49.022;12.148;2022-10-26T14:23:46;15.40;99.90
792;DHT22;379;49.022;12.148;2022-10-26T14:26:21;15.30;99.90
792;DHT22;379;49.022;12.148;2022-10-26T14:28:49;15.30;99.90
792;DHT22;379;49.022;12.148;2022-10-26T14:31:22;15.20;99.90
792;DHT22;379;49.022;12.148;2022-10-26T14:33:50;15.10;99.90
792;DHT22;379;49.022;12.148;2022-10-26T14:36:18;15.10;99.90
792;DHT22;379;49.022;12.148;2022-10-26T14:38:48;15.00;99.90
792;DHT22;379;49.022;12.148;2022-10-26T14:41:16;15.10;99.90
792;DHT22;379;49.022;12.148;2022-10-26T14:43:45;15.10;99.90
792;DHT22;379;49.022;12.148;2022-10-26T14:46:13;15.20;99.90
792;DHT22;379;49.022;12.148;2022-10-26T14:48:50;15.20;99.90
792;DHT22;379;49.022;12.148;2022-10-26T14:51:19;15.10;99.90
792;DHT22;379;49.022;12.148;2022-10-26T14:53:48;15.10;99.90
792;DHT22;379;49.022;12.148;2022-10-26T14:56:24;15.10;99.90
792;DHT22;379;49.022;12.148;2022-10-26T14:58:54;15.10;99.90
792;DHT22;379;49.022;12.148;2022-10-26T15:01:46;15.20;99.90
792;DHT22;379;49.022;12.148;2022-10-26T15:04:27;15.20;99.90
792;DHT22;379;49.022;12.148;2022-10-26T15:07:00;15.20;99.90
792;DHT22;379;49.022;12.148;2022-10-26T15:09:37;15.10;99.90
792;DHT22;379;49.022;12.148;2022-10-26T15:12:05;15.00;99.90
792;DHT22;379;49.022;12.148;2022-10-26T15:14:35;14.90;99.90
792;DHT22;379;49.022;12.148;2022-10-26T15:17:02;14.80;99.90
792;DHT22;379;49.022;12.148;2022-10-26T15:19:29;14.70;99.90
792;DHT22;379;49.022;12.148;2022-10-26T15:21:56;14.60;99.90
792;DHT22;379;49.022;12.148;2022-10-26T15:24:29;14.50;99.90
792;DHT22;379;49.022;12.148;2022-10-26T15:26:56;14.60;99.90
792;DHT22;379;49.022;12.148;2022-10-26T15:29:39;14.60;99.90
792;DHT22;379;49.022;12.148;2022-10-26T15:32:28;14.60;99.90
792;DHT22;379;49.022;12.148;2022-10-26T15:35:22;14.50;99.90
792;DHT22;379;49.022;12.148;2022-10-26T15:37:50;14.30;99.90
792;DHT22;379;49.022;12.148;2022-10-26T15:40:17;14.20;99.90
792;DHT22;379;49.022;12.148;2022-10-26T15:42:48;14.10;99.90
792;DHT22;379;49.022;12.148;2022-10-26T15:45:24;14.00;99.90
792;DHT22;379;49.022;12.148;2022-10-26T15:47:52;14.00;99.90
792;DHT22;379;49.022;12.148;2022-10-26T15:50:21;13.90;99.90
792;DHT22;379;49.022;12.148;2022-10-26T15:52:48;13.80;99.90
792;DHT22;379;49.022;12.148;2022-10-26T15:55:16;13.70;99.90
792;DHT22;379;49.022;12.148;2022-10-26T15:57:43;13.60;99.90
792;DHT22;379;49.022;12.148;2022-10-26T16:00:14;13.50;99.90
792;DHT22;379;49.022;12.148;2022-10-26T16:02:43;13.40;99.90
792;DHT22;379;49.022;12.148;2022-10-26T16:05:11;13.40;99.90
792;DHT22;379;49.022;12.148;2022-10-26T16:07:38;13.40;99.90
792;DHT22;379;49.022;12.148;2022-10-26T16:10:11;13.40;99.90
792;DHT22;379;49.022;12.148;2022-10-26T16:12:39;13.30;99.90
792;DHT22;379;49.022;12.148;2022-10-26T16:15:06;13.40;99.90
792;DHT22;379;49.022;12.148;2022-10-26T16:17:34;13.30;99.90
792;DHT22;379;49.022;12.148;2022-10-26T16:20:02;13.30;99.90
792;DHT22;379;49.022;12.148;2022-10-26T16:22:29;13.30;99.90
792;DHT22;379;49.022;12.148;2022-10-26T16:24:55;13.30;99.90
792;DHT22;379;49.022;12.148;2022-10-26T16:27:22;13.40;99.90
792;DHT22;379;49.022;12.148;2022-10-26T16:29:49;13.40;99.90
792;DHT22;379;49.022;12.148;2022-10-26T16:32:16;13.30;99.90
792;DHT22;379;49.022;12.148;2022-10-26T16:34:42;13.30;99.90
792;DHT22;379;49.022;12.148;2022-10-26T16:37:10;13.30;99.90
792;DHT22;379;49.022;12.148;2022-10-26T16:39:37;13.30;99.90
792;DHT22;379;49.022;12.148;2022-10-26T16:42:04;13.30;99.90
792;DHT22;379;49.022;12.148;2022-10-26T16:44:31;13.40;99.90
792;DHT22;379;49.022;12.148;2022-10-26T16:46:57;13.40;99.90
792;DHT22;379;49.022;12.148;2022-10-26T16:49:24;13.40;99.90
792;DHT22;379;49.022;12.148;2022-10-26T16:51:51;13.40;99.90
792;DHT22;379;49.022;12.148;2022-10-26T16:54:19;13.40;99.90
792;DHT22;379;49.022;12.148;2022-10-26T16:56:46;13.50;99.90
792;DHT22;379;49.022;12.148;2022-10-26T16:59:12;13.50;99.90
792;DHT22;379;49.022;12.148;2022-10-26T17:01:39;13.50;99.90
792;DHT22;379;49.022;12.148;2022-10-26T17:04:06;13.50;99.90